Aviation Digital Data Service (ADDS)

Output produced by TAFs form (0032 UTC 21 January 2018)
found at http://aviationweather.gov/adds/tafs/
 
KGJT 202339Z 2100/2124 34010KT P6SM VCSH SCT045 BKN100 OVC120 
     FM210200 29008KT P6SM -SHRASN BKN030 BKN035 
     FM210500 31008KT P6SM -SHSN SCT030 BKN040 
     FM210700 33006KT 6SM -SHSN SCT035 BKN045 
     FM210900 31004KT 4SM -SHSN BR BKN035 
     FM211100 32007KT 4SM BR VCSH BKN020 OVC035